sensor_id;sensor_type;location;lat;lon;timestamp;pressure;altitude;pressure_sealevel;temperature;humidity
76260;BME280;65076;52.362;6.588;2023-08-06T00:01:03;100537.41;;;16.90;80.45
76260;BME280;65076;52.362;6.588;2023-08-06T00:03:31;100530.47;;;17.08;80.15
76260;BME280;65076;52.362;6.588;2023-08-06T00:05:59;100538.00;;;16.82;81.80
76260;BME280;65076;52.362;6.588;2023-08-06T00:08:27;100531.94;;;16.90;81.48
76260;BME280;65076;52.362;6.588;2023-08-06T00:10:56;100533.03;;;16.76;80.70
76260;BME280;65076;52.362;6.588;2023-08-06T00:13:24;100525.81;;;16.75;81.42
76260;BME280;65076;52.362;6.588;2023-08-06T00:15:52;100523.44;;;16.71;81.82
76260;BME280;65076;52.362;6.588;2023-08-06T00:18:20;100522.81;;;16.67;81.51
76260;BME280;65076;52.362;6.588;2023-08-06T00:20:48;100517.88;;;16.83;80.89
76260;BME280;65076;52.362;6.588;2023-08-06T00:23:16;100524.53;;;16.33;81.57
76260;BME280;65076;52.362;6.588;2023-08-06T00:25:44;100516.84;;;16.38;83.27
76260;BME280;65076;52.362;6.588;2023-08-06T00:28:13;100519.41;;;16.52;82.20
76260;BME280;65076;52.362;6.588;2023-08-06T00:30:41;100519.50;;;16.16;82.65
76260;BME280;65076;52.362;6.588;2023-08-06T00:33:09;100524.63;;;16.21;83.80
76260;BME280;65076;52.362;6.588;2023-08-06T00:35:37;100524.88;;;16.52;83.23
76260;BME280;65076;52.362;6.588;2023-08-06T00:38:05;100521.34;;;16.63;81.94
76260;BME280;65076;52.362;6.588;2023-08-06T00:40:33;100520.03;;;16.56;82.06
76260;BME280;65076;52.362;6.588;2023-08-06T00:43:01;100521.19;;;16.65;81.90
76260;BME280;65076;52.362;6.588;2023-08-06T00:45:31;100519.41;;;16.52;82.38
76260;BME280;65076;52.362;6.588;2023-08-06T00:48:04;100518.63;;;16.50;82.59
76260;BME280;65076;52.362;6.588;2023-08-06T00:50:33;100523.44;;;16.36;82.26
76260;BME280;65076;52.362;6.588;2023-08-06T00:53:02;100517.97;;;16.71;81.97
76260;BME280;65076;52.362;6.588;2023-08-06T00:55:30;100517.50;;;16.77;80.72
76260;BME280;65076;52.362;6.588;2023-08-06T00:57:58;100527.59;;;16.52;82.17
76260;BME280;65076;52.362;6.588;2023-08-06T01:00:26;100520.69;;;16.60;81.80
76260;BME280;65076;52.362;6.588;2023-08-06T01:02:56;100516.50;;;16.78;80.80
76260;BME280;65076;52.362;6.588;2023-08-06T01:05:24;100517.06;;;16.59;81.23
76260;BME280;65076;52.362;6.588;2023-08-06T01:08:05;100516.34;;;16.33;82.34
76260;BME280;65076;52.362;6.588;2023-08-06T01:10:59;100522.34;;;16.49;81.30
76260;BME280;65076;52.362;6.588;2023-08-06T01:13:41;100519.72;;;16.37;83.60
76260;BME280;65076;52.362;6.588;2023-08-06T01:16:15;100513.81;;;16.19;83.59
76260;BME280;65076;52.362;6.588;2023-08-06T01:18:47;100506.97;;;16.48;82.27
76260;BME280;65076;52.362;6.588;2023-08-06T01:21:18;100512.59;;;16.58;81.89
76260;BME280;65076;52.362;6.588;2023-08-06T01:23:46;100514.69;;;16.20;82.94
76260;BME280;65076;52.362;6.588;2023-08-06T01:26:22;100505.31;;;16.35;83.48
76260;BME280;65076;52.362;6.588;2023-08-06T01:29:00;100509.16;;;16.43;82.17
76260;BME280;65076;52.362;6.588;2023-08-06T01:31:36;100506.69;;;16.64;82.11
76260;BME280;65076;52.362;6.588;2023-08-06T01:34:10;100504.47;;;16.45;82.16
76260;BME280;65076;52.362;6.588;2023-08-06T01:36:46;100504.69;;;16.31;82.05
76260;BME280;65076;52.362;6.588;2023-08-06T01:39:14;100498.44;;;16.53;82.73
76260;BME280;65076;52.362;6.588;2023-08-06T01:41:42;100491.66;;;16.35;83.48
76260;BME280;65076;52.362;6.588;2023-08-06T01:44:10;100492.69;;;16.45;82.49
76260;BME280;65076;52.362;6.588;2023-08-06T01:46:38;100487.31;;;16.67;81.76
76260;BME280;65076;52.362;6.588;2023-08-06T01:49:06;100490.66;;;16.71;81.67
76260;BME280;65076;52.362;6.588;2023-08-06T01:51:34;100490.97;;;16.55;82.36
76260;BME280;65076;52.362;6.588;2023-08-06T01:54:03;100487.56;;;16.40;82.45
76260;BME280;65076;52.362;6.588;2023-08-06T01:56:31;100489.31;;;16.41;82.66
76260;BME280;65076;52.362;6.588;2023-08-06T01:58:59;100482.38;;;16.37;82.79
76260;BME280;65076;52.362;6.588;2023-08-06T02:01:30;100484.72;;;16.42;82.05
76260;BME280;65076;52.362;6.588;2023-08-06T02:03:58;100483.88;;;16.41;82.41
76260;BME280;65076;52.362;6.588;2023-08-06T02:06:26;100488.84;;;16.47;82.68
76260;BME280;65076;52.362;6.588;2023-08-06T02:08:55;100485.22;;;16.36;82.09
76260;BME280;65076;52.362;6.588;2023-08-06T02:11:24;100488.38;;;16.53;82.61
76260;BME280;65076;52.362;6.588;2023-08-06T02:13:52;100491.66;;;16.00;82.93
76260;BME280;65076;52.362;6.588;2023-08-06T02:16:20;100482.94;;;15.95;84.54
76260;BME280;65076;52.362;6.588;2023-08-06T02:18:49;100487.56;;;16.40;82.43
76260;BME280;65076;52.362;6.588;2023-08-06T02:21:17;100479.69;;;16.60;82.19
76260;BME280;65076;52.362;6.588;2023-08-06T02:23:44;100484.19;;;16.02;83.14
76260;BME280;65076;52.362;6.588;2023-08-06T02:26:11;100478.56;;;16.16;83.59
76260;BME280;65076;52.362;6.588;2023-08-06T02:28:41;100473.66;;;16.67;82.01
76260;BME280;65076;52.362;6.588;2023-08-06T02:31:09;100477.25;;;16.68;81.42
76260;BME280;65076;52.362;6.588;2023-08-06T02:33:37;100469.59;;;16.49;82.67
76260;BME280;65076;52.362;6.588;2023-08-06T02:36:05;100466.88;;;16.14;84.38
76260;BME280;65076;52.362;6.588;2023-08-06T02:38:33;100465.81;;;16.28;82.86
76260;BME280;65076;52.362;6.588;2023-08-06T02:41:02;100460.63;;;16.36;83.21
76260;BME280;65076;52.362;6.588;2023-08-06T02:43:31;100464.72;;;16.30;81.80
76260;BME280;65076;52.362;6.588;2023-08-06T02:46:00;100466.59;;;16.41;81.97
76260;BME280;65076;52.362;6.588;2023-08-06T02:48:29;100459.06;;;16.56;82.55
76260;BME280;65076;52.362;6.588;2023-08-06T02:50:57;100465.19;;;16.24;83.33
76260;BME280;65076;52.362;6.588;2023-08-06T02:53:26;100460.84;;;16.22;83.39
76260;BME280;65076;52.362;6.588;2023-08-06T02:55:54;100448.84;;;16.35;83.74
76260;BME280;65076;52.362;6.588;2023-08-06T02:58:23;100454.28;;;16.35;83.04
76260;BME280;65076;52.362;6.588;2023-08-06T03:01:02;100451.16;;;16.29;83.38
76260;BME280;65076;52.362;6.588;2023-08-06T03:03:32;100443.81;;;16.18;83.71
76260;BME280;65076;52.362;6.588;2023-08-06T03:06:01;100442.09;;;16.28;84.20
76260;BME280;65076;52.362;6.588;2023-08-06T03:08:29;100438.00;;;15.88;83.96
76260;BME280;65076;52.362;6.588;2023-08-06T03:10:57;100440.28;;;16.40;83.38
76260;BME280;65076;52.362;6.588;2023-08-06T03:13:25;100440.72;;;16.12;84.04
76260;BME280;65076;52.362;6.588;2023-08-06T03:15:55;100443.09;;;15.92;85.41
76260;BME280;65076;52.362;6.588;2023-08-06T03:18:26;100437.16;;;16.22;83.93
76260;BME280;65076;52.362;6.588;2023-08-06T03:20:54;100438.50;;;16.63;82.66
76260;BME280;65076;52.362;6.588;2023-08-06T03:23:23;100438.69;;;16.37;83.75
76260;BME280;65076;52.362;6.588;2023-08-06T03:25:51;100435.28;;;16.34;83.59
76260;BME280;65076;52.362;6.588;2023-08-06T03:28:19;100430.53;;;16.14;83.68
76260;BME280;65076;52.362;6.588;2023-08-06T03:30:48;100430.88;;;16.09;83.79
76260;BME280;65076;52.362;6.588;2023-08-06T03:33:28;100430.59;;;16.36;82.31
76260;BME280;65076;52.362;6.588;2023-08-06T03:35:56;100433.97;;;16.04;83.58
76260;BME280;65076;52.362;6.588;2023-08-06T03:38:24;100438.50;;;16.17;83.47
76260;BME280;65076;52.362;6.588;2023-08-06T03:40:52;100440.66;;;15.77;84.79
76260;BME280;65076;52.362;6.588;2023-08-06T03:43:20;100435.84;;;16.04;84.16
76260;BME280;65076;52.362;6.588;2023-08-06T03:45:48;100442.38;;;16.36;84.51
76260;BME280;65076;52.362;6.588;2023-08-06T03:48:16;100442.00;;;16.30;82.40
76260;BME280;65076;52.362;6.588;2023-08-06T03:50:46;100448.13;;;15.75;85.20
76260;BME280;65076;52.362;6.588;2023-08-06T03:53:14;100443.44;;;16.12;84.44
76260;BME280;65076;52.362;6.588;2023-08-06T03:55:42;100451.84;;;15.74;84.85
76260;BME280;65076;52.362;6.588;2023-08-06T03:58:10;100447.19;;;16.22;84.62
76260;BME280;65076;52.362;6.588;2023-08-06T04:00:38;100443.31;;;16.13;83.64
76260;BME280;65076;52.362;6.588;2023-08-06T04:03:05;100449.03;;;15.86;85.44
76260;BME280;65076;52.362;6.588;2023-08-06T04:05:33;100442.56;;;16.11;84.41
76260;BME280;65076;52.362;6.588;2023-08-06T04:08:03;100446.50;;;16.07;84.55
76260;BME280;65076;52.362;6.588;2023-08-06T04:10:31;100440.75;;;15.64;85.96
76260;BME280;65076;52.362;6.588;2023-08-06T04:12:59;100437.13;;;16.11;84.55
76260;BME280;65076;52.362;6.588;2023-08-06T04:15:27;100431.28;;;16.16;85.16
76260;BME280;65076;52.362;6.588;2023-08-06T04:17:55;100436.91;;;15.90;85.39
76260;BME280;65076;52.362;6.588;2023-08-06T04:20:23;100441.53;;;16.47;83.35
76260;BME280;65076;52.362;6.588;2023-08-06T04:22:54;100431.81;;;16.21;83.29
76260;BME280;65076;52.362;6.588;2023-08-06T04:25:23;100439.44;;;16.50;82.60
76260;BME280;65076;52.362;6.588;2023-08-06T04:27:52;100445.19;;;16.24;83.42
76260;BME280;65076;52.362;6.588;2023-08-06T04:30:20;100441.41;;;16.37;82.94
76260;BME280;65076;52.362;6.588;2023-08-06T04:32:49;100441.75;;;16.79;81.30
76260;BME280;65076;52.362;6.588;2023-08-06T04:35:17;100441.38;;;16.83;81.59
76260;BME280;65076;52.362;6.588;2023-08-06T04:37:45;100441.00;;;16.77;80.63
76260;BME280;65076;52.362;6.588;2023-08-06T04:40:13;100441.00;;;16.88;81.01
76260;BME280;65076;52.362;6.588;2023-08-06T04:42:43;100436.78;;;16.84;81.54
76260;BME280;65076;52.362;6.588;2023-08-06T04:45:11;100444.97;;;16.73;81.69
76260;BME280;65076;52.362;6.588;2023-08-06T04:47:39;100437.00;;;16.70;81.96
76260;BME280;65076;52.362;6.588;2023-08-06T04:50:07;100444.13;;;16.94;81.81
76260;BME280;65076;52.362;6.588;2023-08-06T04:52:35;100446.34;;;16.78;81.28
76260;BME280;65076;52.362;6.588;2023-08-06T04:55:03;100443.13;;;16.96;80.88
76260;BME280;65076;52.362;6.588;2023-08-06T04:57:32;100447.56;;;16.97;81.08
76260;BME280;65076;52.362;6.588;2023-08-06T05:00:03;100450.56;;;16.93;80.92
76260;BME280;65076;52.362;6.588;2023-08-06T05:02:32;100452.28;;;17.17;80.52
76260;BME280;65076;52.362;6.588;2023-08-06T05:05:01;100446.22;;;17.02;80.83
76260;BME280;65076;52.362;6.588;2023-08-06T05:07:29;100451.84;;;16.54;82.19
76260;BME280;65076;52.362;6.588;2023-08-06T05:09:57;100450.66;;;16.81;82.73
76260;BME280;65076;52.362;6.588;2023-08-06T05:12:24;100450.25;;;16.52;83.23
76260;BME280;65076;52.362;6.588;2023-08-06T05:14:53;100452.66;;;16.68;83.14
76260;BME280;65076;52.362;6.588;2023-08-06T05:17:22;100454.41;;;16.69;82.66
76260;BME280;65076;52.362;6.588;2023-08-06T05:19:50;100455.41;;;16.68;82.67
76260;BME280;65076;52.362;6.588;2023-08-06T05:22:18;100458.16;;;16.79;82.56
76260;BME280;65076;52.362;6.588;2023-08-06T05:24:46;100455.53;;;17.00;81.72
76260;BME280;65076;52.362;6.588;2023-08-06T05:27:14;100467.19;;;17.02;82.41
76260;BME280;65076;52.362;6.588;2023-08-06T05:29:45;100464.72;;;16.87;82.33
76260;BME280;65076;52.362;6.588;2023-08-06T05:32:13;100459.75;;;16.81;82.35
76260;BME280;65076;52.362;6.588;2023-08-06T05:34:42;100462.59;;;17.24;81.41
76260;BME280;65076;52.362;6.588;2023-08-06T05:37:10;100462.38;;;16.94;82.51
76260;BME280;65076;52.362;6.588;2023-08-06T05:39:38;100468.22;;;16.89;82.43
76260;BME280;65076;52.362;6.588;2023-08-06T05:42:06;100463.25;;;16.94;82.70
76260;BME280;65076;52.362;6.588;2023-08-06T05:44:34;100471.44;;;17.06;81.96
76260;BME280;65076;52.362;6.588;2023-08-06T05:47:03;100470.31;;;16.97;81.78
76260;BME280;65076;52.362;6.588;2023-08-06T05:49:31;100472.53;;;16.92;81.27
76260;BME280;65076;52.362;6.588;2023-08-06T05:52:01;100468.19;;;17.23;81.13
76260;BME280;65076;52.362;6.588;2023-08-06T05:54:32;100462.31;;;17.50;79.55
76260;BME280;65076;52.362;6.588;2023-08-06T05:57:00;100469.34;;;17.09;80.24
76260;BME280;65076;52.362;6.588;2023-08-06T05:59:28;100475.75;;;16.75;82.25
76260;BME280;65076;52.362;6.588;2023-08-06T06:01:56;100474.78;;;17.09;81.13
76260;BME280;65076;52.362;6.588;2023-08-06T06:04:24;100479.75;;;17.38;79.74
76260;BME280;65076;52.362;6.588;2023-08-06T06:06:52;100484.63;;;17.01;80.67
76260;BME280;65076;52.362;6.588;2023-08-06T06:09:22;100478.63;;;17.62;79.67
76260;BME280;65076;52.362;6.588;2023-08-06T06:11:50;100487.81;;;17.17;79.83
76260;BME280;65076;52.362;6.588;2023-08-06T06:14:19;100487.94;;;17.71;78.65
76260;BME280;65076;52.362;6.588;2023-08-06T06:16:47;100481.56;;;18.13;77.71
76260;BME280;65076;52.362;6.588;2023-08-06T06:19:14;100488.28;;;18.41;77.59
76260;BME280;65076;52.362;6.588;2023-08-06T06:21:42;100492.44;;;18.36;76.73
76260;BME280;65076;52.362;6.588;2023-08-06T06:24:10;100482.94;;;18.40;76.34
76260;BME280;65076;52.362;6.588;2023-08-06T06:26:40;100485.50;;;18.52;76.50
76260;BME280;65076;52.362;6.588;2023-08-06T06:29:08;100477.38;;;18.62;76.54
76260;BME280;65076;52.362;6.588;2023-08-06T06:31:36;100487.16;;;18.44;76.49
76260;BME280;65076;52.362;6.588;2023-08-06T06:34:04;100494.06;;;18.59;75.93
76260;BME280;65076;52.362;6.588;2023-08-06T06:36:32;100490.53;;;18.68;75.37
76260;BME280;65076;52.362;6.588;2023-08-06T06:39:00;100495.84;;;18.90;74.19
76260;BME280;65076;52.362;6.588;2023-08-06T06:41:28;100492.31;;;19.30;71.87
76260;BME280;65076;52.362;6.588;2023-08-06T06:44:00;100489.66;;;19.49;73.54
76260;BME280;65076;52.362;6.588;2023-08-06T06:46:28;100495.06;;;19.70;73.36
76260;BME280;65076;52.362;6.588;2023-08-06T06:48:56;100497.91;;;19.49;71.17
76260;BME280;65076;52.362;6.588;2023-08-06T06:51:24;100505.19;;;19.09;73.56
76260;BME280;65076;52.362;6.588;2023-08-06T06:53:52;100504.38;;;19.18;73.16
76260;BME280;65076;52.362;6.588;2023-08-06T06:56:20;100499.00;;;19.16;74.49
76260;BME280;65076;52.362;6.588;2023-08-06T06:58:48;100496.06;;;19.29;72.88
76260;BME280;65076;52.362;6.588;2023-08-06T07:01:18;100502.59;;;19.07;73.22
76260;BME280;65076;52.362;6.588;2023-08-06T07:03:46;100506.47;;;19.35;73.99
76260;BME280;65076;52.362;6.588;2023-08-06T07:06:14;100493.34;;;19.78;72.95
76260;BME280;65076;52.362;6.588;2023-08-06T07:08:44;100496.06;;;19.29;73.45
76260;BME280;65076;52.362;6.588;2023-08-06T07:11:12;100503.34;;;19.09;72.90
76260;BME280;65076;52.362;6.588;2023-08-06T07:13:40;100496.66;;;19.02;74.32
76260;BME280;65076;52.362;6.588;2023-08-06T07:16:08;100501.91;;;19.15;73.24
76260;BME280;65076;52.362;6.588;2023-08-06T07:18:38;100505.66;;;19.14;73.77
76260;BME280;65076;52.362;6.588;2023-08-06T07:21:06;100510.25;;;18.83;74.72
76260;BME280;65076;52.362;6.588;2023-08-06T07:23:34;100507.16;;;18.76;74.12
76260;BME280;65076;52.362;6.588;2023-08-06T07:26:02;100511.78;;;18.55;75.77
76260;BME280;65076;52.362;6.588;2023-08-06T07:28:30;100516.69;;;19.54;73.91
76260;BME280;65076;52.362;6.588;2023-08-06T07:30:58;100513.84;;;19.65;72.89
76260;BME280;65076;52.362;6.588;2023-08-06T07:33:26;100512.72;;;19.16;74.31
76260;BME280;65076;52.362;6.588;2023-08-06T07:35:55;100514.34;;;18.88;74.62
76260;BME280;65076;52.362;6.588;2023-08-06T07:38:23;100515.84;;;19.02;74.67
76260;BME280;65076;52.362;6.588;2023-08-06T07:40:52;100513.78;;;18.74;75.04
76260;BME280;65076;52.362;6.588;2023-08-06T07:43:20;100521.94;;;18.85;75.09
76260;BME280;65076;52.362;6.588;2023-08-06T07:45:48;100521.63;;;18.78;75.25
76260;BME280;65076;52.362;6.588;2023-08-06T07:48:16;100523.09;;;18.82;74.49
76260;BME280;65076;52.362;6.588;2023-08-06T07:50:44;100520.19;;;19.35;73.78
76260;BME280;65076;52.362;6.588;2023-08-06T07:53:18;100519.13;;;18.54;75.98
76260;BME280;65076;52.362;6.588;2023-08-06T07:55:49;100513.25;;;18.80;75.63
76260;BME280;65076;52.362;6.588;2023-08-06T07:58:17;100510.50;;;19.52;74.46
76260;BME280;65076;52.362;6.588;2023-08-06T08:00:46;100514.28;;;19.39;73.81
76260;BME280;65076;52.362;6.588;2023-08-06T08:03:15;100513.31;;;19.80;71.77
76260;BME280;65076;52.362;6.588;2023-08-06T08:05:44;100513.50;;;19.58;72.03
76260;BME280;65076;52.362;6.588;2023-08-06T08:08:14;100516.34;;;19.87;72.51
76260;BME280;65076;52.362;6.588;2023-08-06T08:10:43;100512.88;;;19.85;71.48
76260;BME280;65076;52.362;6.588;2023-08-06T08:13:14;100520.66;;;19.40;73.39
76260;BME280;65076;52.362;6.588;2023-08-06T08:15:42;100518.97;;;19.88;71.66
76260;BME280;65076;52.362;6.588;2023-08-06T08:18:10;100516.38;;;20.25;70.55
76260;BME280;65076;52.362;6.588;2023-08-06T08:20:38;100526.81;;;19.32;72.24
76260;BME280;65076;52.362;6.588;2023-08-06T08:23:06;100530.50;;;18.91;74.32
76260;BME280;65076;52.362;6.588;2023-08-06T08:25:34;100521.53;;;19.10;74.38
76260;BME280;65076;52.362;6.588;2023-08-06T08:28:03;100525.75;;;19.14;74.42
76260;BME280;65076;52.362;6.588;2023-08-06T08:30:31;100527.34;;;19.47;72.78
76260;BME280;65076;52.362;6.588;2023-08-06T08:32:59;100517.81;;;19.91;72.56
76260;BME280;65076;52.362;6.588;2023-08-06T08:35:27;100522.53;;;19.79;72.07
76260;BME280;65076;52.362;6.588;2023-08-06T08:37:55;100520.72;;;19.50;73.41
76260;BME280;65076;52.362;6.588;2023-08-06T08:40:28;100527.09;;;19.50;72.67
76260;BME280;65076;52.362;6.588;2023-08-06T08:42:59;100525.75;;;19.44;73.64
76260;BME280;65076;52.362;6.588;2023-08-06T08:45:42;100520.53;;;19.41;72.76
76260;BME280;65076;52.362;6.588;2023-08-06T08:48:17;100524.53;;;19.37;72.81
76260;BME280;65076;52.362;6.588;2023-08-06T08:50:49;100518.31;;;19.56;72.94
76260;BME280;65076;52.362;6.588;2023-08-06T08:53:18;100522.50;;;19.60;72.70
76260;BME280;65076;52.362;6.588;2023-08-06T08:55:47;100524.78;;;20.14;70.13
76260;BME280;65076;52.362;6.588;2023-08-06T08:58:16;100528.13;;;20.18;69.45
76260;BME280;65076;52.362;6.588;2023-08-06T09:00:47;100526.84;;;20.41;69.26
76260;BME280;65076;52.362;6.588;2023-08-06T09:03:16;100517.44;;;20.63;68.24
76260;BME280;65076;52.362;6.588;2023-08-06T09:05:45;100524.25;;;20.49;68.30
76260;BME280;65076;52.362;6.588;2023-08-06T09:08:26;100525.41;;;20.56;68.33
76260;BME280;65076;52.362;6.588;2023-08-06T09:10:59;100520.81;;;21.23;65.93
76260;BME280;65076;52.362;6.588;2023-08-06T09:13:29;100522.25;;;21.91;64.61
76260;BME280;65076;52.362;6.588;2023-08-06T09:15:58;100522.75;;;22.04;64.66
76260;BME280;65076;52.362;6.588;2023-08-06T09:18:27;100519.00;;;22.58;61.88
76260;BME280;65076;52.362;6.588;2023-08-06T09:20:57;100514.69;;;23.51;57.76
76260;BME280;65076;52.362;6.588;2023-08-06T09:23:42;100519.72;;;25.04;55.76
76260;BME280;65076;52.362;6.588;2023-08-06T09:26:11;100524.47;;;26.06;52.24
76260;BME280;65076;52.362;6.588;2023-08-06T09:28:42;100519.78;;;26.06;49.49
76260;BME280;65076;52.362;6.588;2023-08-06T09:31:12;100523.91;;;26.64;51.29
76260;BME280;65076;52.362;6.588;2023-08-06T09:33:40;100513.59;;;27.92;47.86
76260;BME280;65076;52.362;6.588;2023-08-06T09:36:10;100528.06;;;28.74;44.30
76260;BME280;65076;52.362;6.588;2023-08-06T09:38:39;100518.84;;;28.16;44.45
76260;BME280;65076;52.362;6.588;2023-08-06T09:41:08;100529.38;;;27.32;45.71
76260;BME280;65076;52.362;6.588;2023-08-06T09:43:40;100532.81;;;27.05;47.55
76260;BME280;65076;52.362;6.588;2023-08-06T09:46:14;100536.78;;;26.88;49.47
76260;BME280;65076;52.362;6.588;2023-08-06T09:48:46;100528.34;;;26.50;50.89
76260;BME280;65076;52.362;6.588;2023-08-06T09:51:15;100538.72;;;25.23;52.29
76260;BME280;65076;52.362;6.588;2023-08-06T09:53:45;100536.75;;;26.11;51.00
76260;BME280;65076;52.362;6.588;2023-08-06T09:56:18;100536.59;;;25.50;52.93
76260;BME280;65076;52.362;6.588;2023-08-06T09:58:47;100538.94;;;24.98;52.68
76260;BME280;65076;52.362;6.588;2023-08-06T10:01:18;100546.91;;;25.01;52.96
76260;BME280;65076;52.362;6.588;2023-08-06T10:03:51;100546.53;;;24.63;54.76
76260;BME280;65076;52.362;6.588;2023-08-06T10:06:22;100540.47;;;24.43;55.86
76260;BME280;65076;52.362;6.588;2023-08-06T10:08:52;100543.75;;;24.39;55.34
76260;BME280;65076;52.362;6.588;2023-08-06T10:11:21;100546.72;;;24.86;54.61
76260;BME280;65076;52.362;6.588;2023-08-06T10:13:55;100535.50;;;24.96;53.32
76260;BME280;65076;52.362;6.588;2023-08-06T10:16:32;100541.19;;;24.70;54.27
76260;BME280;65076;52.362;6.588;2023-08-06T10:19:04;100536.94;;;24.17;54.52
76260;BME280;65076;52.362;6.588;2023-08-06T10:21:32;100542.31;;;23.85;56.75
76260;BME280;65076;52.362;6.588;2023-08-06T10:24:00;100538.53;;;23.86;55.03
76260;BME280;65076;52.362;6.588;2023-08-06T10:26:30;100535.50;;;23.63;56.31
76260;BME280;65076;52.362;6.588;2023-08-06T10:28:58;100543.41;;;23.06;58.21
76260;BME280;65076;52.362;6.588;2023-08-06T10:31:58;100545.88;;;22.38;59.74
76260;BME280;65076;52.362;6.588;2023-08-06T10:34:41;100552.09;;;22.23;60.80
76260;BME280;65076;52.362;6.588;2023-08-06T10:37:21;100543.91;;;22.13;60.08
76260;BME280;65076;52.362;6.588;2023-08-06T10:39:50;100544.06;;;21.75;60.86
76260;BME280;65076;52.362;6.588;2023-08-06T10:42:22;100543.53;;;21.71;62.23
76260;BME280;65076;52.362;6.588;2023-08-06T10:45:14;100545.16;;;21.64;62.74
76260;BME280;65076;52.362;6.588;2023-08-06T10:47:45;100542.28;;;21.00;66.09
76260;BME280;65076;52.362;6.588;2023-08-06T10:50:15;100537.91;;;21.26;65.47
76260;BME280;65076;52.362;6.588;2023-08-06T10:52:44;100548.91;;;21.63;64.89
76260;BME280;65076;52.362;6.588;2023-08-06T10:55:13;100545.59;;;22.14;62.55
76260;BME280;65076;52.362;6.588;2023-08-06T10:57:42;100537.19;;;22.16;63.86
76260;BME280;65076;52.362;6.588;2023-08-06T11:00:11;100539.94;;;22.16;62.49
76260;BME280;65076;52.362;6.588;2023-08-06T11:02:44;100538.84;;;21.81;62.77
76260;BME280;65076;52.362;6.588;2023-08-06T11:05:15;100550.50;;;21.66;62.96
76260;BME280;65076;52.362;6.588;2023-08-06T11:07:43;100546.78;;;21.84;63.19
76260;BME280;65076;52.362;6.588;2023-08-06T11:10:12;100534.53;;;22.59;61.79
76260;BME280;65076;52.362;6.588;2023-08-06T11:12:40;100531.44;;;21.82;63.44
76260;BME280;65076;52.362;6.588;2023-08-06T11:15:09;100544.38;;;22.26;62.13
76260;BME280;65076;52.362;6.588;2023-08-06T11:17:40;100528.06;;;22.68;61.24
76260;BME280;65076;52.362;6.588;2023-08-06T11:20:11;100537.97;;;21.81;63.79
76260;BME280;65076;52.362;6.588;2023-08-06T11:22:43;100533.59;;;22.33;62.01
76260;BME280;65076;52.362;6.588;2023-08-06T11:25:11;100535.69;;;22.21;61.42
76260;BME280;65076;52.362;6.588;2023-08-06T11:27:39;100534.06;;;22.28;61.08
76260;BME280;65076;52.362;6.588;2023-08-06T11:30:11;100527.31;;;23.02;58.61
76260;BME280;65076;52.362;6.588;2023-08-06T11:32:45;100528.78;;;23.14;58.24
76260;BME280;65076;52.362;6.588;2023-08-06T11:35:16;100534.13;;;22.72;59.68
76260;BME280;65076;52.362;6.588;2023-08-06T11:37:45;100528.38;;;23.35;58.14
76260;BME280;65076;52.362;6.588;2023-08-06T11:40:15;100533.63;;;23.72;57.83
76260;BME280;65076;52.362;6.588;2023-08-06T11:42:43;100531.66;;;23.56;58.49
76260;BME280;65076;52.362;6.588;2023-08-06T11:45:14;100528.09;;;23.72;58.50
76260;BME280;65076;52.362;6.588;2023-08-06T11:47:49;100533.06;;;24.10;56.82
76260;BME280;65076;52.362;6.588;2023-08-06T11:50:24;100525.44;;;24.04;57.16
76260;BME280;65076;52.362;6.588;2023-08-06T11:52:54;100528.44;;;23.43;57.58
76260;BME280;65076;52.362;6.588;2023-08-06T11:55:24;100531.47;;;23.49;58.25
76260;BME280;65076;52.362;6.588;2023-08-06T11:57:52;100527.59;;;22.91;60.74
76260;BME280;65076;52.362;6.588;2023-08-06T12:00:23;100526.56;;;23.77;57.19
76260;BME280;65076;52.362;6.588;2023-08-06T12:02:52;100530.19;;;24.20;57.15
76260;BME280;65076;52.362;6.588;2023-08-06T12:05:29;100523.44;;;23.72;56.27
76260;BME280;65076;52.362;6.588;2023-08-06T12:08:00;100527.44;;;24.20;56.38
76260;BME280;65076;52.362;6.588;2023-08-06T12:10:31;100530.91;;;24.30;55.28
76260;BME280;65076;52.362;6.588;2023-08-06T12:13:00;100528.06;;;23.63;57.09
76260;BME280;65076;52.362;6.588;2023-08-06T12:15:29;100527.28;;;23.79;56.91
76260;BME280;65076;52.362;6.588;2023-08-06T12:17:59;100531.56;;;23.74;57.38
76260;BME280;65076;52.362;6.588;2023-08-06T12:20:30;100524.28;;;23.39;56.87
76260;BME280;65076;52.362;6.588;2023-08-06T12:22:58;100535.78;;;24.44;54.84
76260;BME280;65076;52.362;6.588;2023-08-06T12:25:26;100529.81;;;24.15;56.47
76260;BME280;65076;52.362;6.588;2023-08-06T12:27:55;100532.75;;;23.11;58.57
76260;BME280;65076;52.362;6.588;2023-08-06T12:30:24;100529.25;;;24.03;57.14
76260;BME280;65076;52.362;6.588;2023-08-06T12:32:52;100529.22;;;23.95;58.00
76260;BME280;65076;52.362;6.588;2023-08-06T12:35:20;100519.38;;;24.67;54.73
76260;BME280;65076;52.362;6.588;2023-08-06T12:37:49;100515.75;;;24.74;53.44
76260;BME280;65076;52.362;6.588;2023-08-06T12:40:20;100521.97;;;24.44;53.98
76260;BME280;65076;52.362;6.588;2023-08-06T12:43:02;100525.59;;;24.77;52.54
76260;BME280;65076;52.362;6.588;2023-08-06T12:45:30;100528.19;;;24.54;54.27
76260;BME280;65076;52.362;6.588;2023-08-06T12:47:58;100518.25;;;23.69;55.37
76260;BME280;65076;52.362;6.588;2023-08-06T12:50:26;100525.50;;;24.12;54.34
76260;BME280;65076;52.362;6.588;2023-08-06T12:52:55;100521.28;;;24.74;52.71
76260;BME280;65076;52.362;6.588;2023-08-06T12:55:23;100531.63;;;24.48;53.81
76260;BME280;65076;52.362;6.588;2023-08-06T12:57:51;100528.88;;;24.48;54.01
76260;BME280;65076;52.362;6.588;2023-08-06T13:00:26;100515.88;;;24.81;51.68
76260;BME280;65076;52.362;6.588;2023-08-06T13:02:54;100519.03;;;24.86;52.93